createdAt,value
2022-10-17T00:03:53.397Z,15.09
2022-10-17T00:08:33.765Z,15.09
2022-10-17T00:13:16.991Z,15.13
2022-10-17T00:17:58.863Z,15.15
2022-10-17T00:22:39.268Z,15.19
2022-10-17T00:27:19.821Z,15.15
2022-10-17T00:31:59.926Z,15.14
2022-10-17T00:36:41.955Z,15.14
2022-10-17T00:41:24.696Z,15.18
2022-10-17T00:46:04.905Z,15.20
2022-10-17T00:50:49.954Z,15.18
2022-10-17T00:55:34.736Z,15.17
2022-10-17T01:00:16.824Z,15.18
2022-10-17T01:04:59.478Z,15.20
2022-10-17T01:09:40.559Z,15.16
2022-10-17T01:14:30.836Z,15.13
2022-10-17T01:19:36.891Z,15.15
2022-10-17T01:24:42.834Z,15.17
2022-10-17T01:29:48.329Z,15.14
2022-10-17T01:34:36.028Z,15.14
2022-10-17T01:39:26.948Z,15.17
2022-10-17T01:44:14.515Z,15.17
2022-10-17T01:48:56.829Z,15.12
2022-10-17T01:53:43.211Z,15.07
2022-10-17T01:58:30.023Z,15.02
2022-10-17T02:03:13.932Z,14.88
2022-10-17T02:07:54.124Z,14.82
2022-10-17T02:13:02.678Z,14.84
2022-10-17T02:17:48.026Z,14.90
2022-10-17T02:22:39.350Z,14.85
2022-10-17T02:27:27.335Z,14.90
2022-10-17T02:32:13.381Z,14.91
2022-10-17T02:36:59.282Z,14.93
2022-10-17T02:41:41.379Z,14.90
2022-10-17T02:46:24.609Z,14.89
2022-10-17T02:51:13.874Z,14.89
2022-10-17T02:55:58.989Z,14.87
2022-10-17T03:00:41.370Z,14.86
2022-10-17T03:05:24.407Z,14.88
2022-10-17T03:10:07.483Z,14.84
2022-10-17T03:14:47.749Z,14.83
2022-10-17T03:19:28.327Z,14.77
2022-10-17T03:24:08.981Z,14.73
2022-10-17T03:28:53.617Z,14.66
2022-10-17T03:33:34.738Z,14.60
2022-10-17T03:38:14.763Z,14.53
2022-10-17T03:42:54.882Z,14.48
2022-10-17T03:47:36.601Z,14.45
2022-10-17T03:52:16.928Z,14.42
2022-10-17T04:01:37.911Z,14.54
2022-10-17T04:06:19.851Z,14.56
2022-10-17T04:11:00.461Z,14.56
2022-10-17T04:15:41.220Z,14.66
2022-10-17T04:20:21.255Z,14.73
2022-10-17T04:25:02.494Z,14.75
2022-10-17T04:29:44.089Z,14.74
2022-10-17T04:34:24.727Z,14.76
2022-10-17T04:39:05.983Z,14.77
2022-10-17T04:43:51.039Z,14.78
2022-10-17T04:48:32.673Z,14.84
2022-10-17T04:53:12.868Z,14.66
2022-10-17T04:57:53.748Z,14.55
2022-10-17T05:02:35.403Z,14.50
2022-10-17T05:07:15.730Z,14.50
2022-10-17T05:11:56.333Z,14.57
2022-10-17T05:16:36.884Z,14.62
2022-10-17T05:21:19.176Z,14.74
2022-10-17T05:25:59.789Z,14.68
2022-10-17T05:30:40.130Z,14.82
2022-10-17T05:35:20.754Z,14.88
2022-10-17T05:40:02.201Z,14.85
2022-10-17T05:44:42.253Z,14.86
2022-10-17T05:49:32.649Z,14.89
2022-10-17T05:54:20.827Z,14.84
2022-10-17T05:59:03.012Z,14.84
2022-10-17T06:03:43.431Z,14.84
2022-10-17T06:08:24.035Z,14.83
2022-10-17T06:13:04.252Z,14.89
2022-10-17T06:17:46.103Z,14.98
2022-10-17T06:22:26.839Z,15.08
2022-10-17T06:27:11.035Z,15.26
2022-10-17T06:31:53.195Z,15.40
2022-10-17T06:36:34.714Z,15.51
2022-10-17T06:41:16.317Z,15.65
2022-10-17T06:50:38.021Z,15.98
2022-10-17T06:55:22.764Z,16.10
2022-10-17T07:00:04.059Z,16.22
2022-10-17T07:04:46.779Z,16.37
2022-10-17T07:09:27.862Z,16.50
2022-10-17T07:14:09.321Z,16.60
2022-10-17T07:18:50.847Z,16.69
2022-10-17T07:23:31.823Z,16.85
2022-10-17T07:28:12.082Z,17.01
2022-10-17T07:32:55.665Z,17.41
2022-10-17T07:37:35.571Z,17.95
2022-10-17T07:42:15.743Z,18.37
2022-10-17T07:46:55.859Z,18.71
2022-10-17T07:51:37.470Z,18.96
2022-10-17T07:56:18.085Z,19.37
2022-10-17T08:05:47.354Z,19.68
2022-10-17T08:10:29.813Z,19.48
2022-10-17T08:15:11.638Z,19.40
2022-10-17T08:19:52.382Z,19.85
2022-10-17T08:24:32.560Z,19.62
2022-10-17T08:29:15.839Z,19.23
2022-10-17T08:33:56.221Z,19.29
2022-10-17T08:38:41.430Z,19.00
2022-10-17T08:43:37.022Z,19.00
2022-10-17T08:48:22.525Z,19.09
2022-10-17T08:53:07.317Z,19.55
2022-10-17T08:57:49.577Z,20.11
2022-10-17T09:02:40.438Z,20.14
2022-10-17T09:07:30.037Z,19.77
2022-10-17T09:12:18.933Z,19.69
2022-10-17T09:17:12.257Z,19.45
2022-10-17T09:21:57.539Z,19.54
2022-10-17T09:26:41.494Z,19.74
2022-10-17T09:31:27.005Z,19.78
2022-10-17T09:36:13.101Z,19.71
2022-10-17T09:40:57.967Z,19.79
2022-10-17T09:45:47.177Z,19.74
2022-10-17T09:50:30.090Z,19.79
2022-10-17T09:55:19.552Z,19.90
2022-10-17T10:00:02.765Z,20.07
2022-10-17T10:05:10.047Z,19.76
2022-10-17T10:09:51.735Z,20.09
2022-10-17T10:14:34.467Z,20.00
2022-10-17T10:19:22.528Z,20.03
2022-10-17T10:24:13.896Z,20.27
2022-10-17T10:29:01.002Z,20.22
2022-10-17T10:33:46.983Z,20.12
2022-10-17T10:38:30.783Z,20.00
2022-10-17T10:43:24.303Z,19.74
2022-10-17T10:48:14.202Z,19.65
2022-10-17T10:53:08.852Z,19.76
2022-10-17T10:57:50.826Z,19.98
2022-10-17T11:02:39.353Z,19.99
2022-10-17T11:07:25.187Z,20.17
2022-10-17T11:12:11.453Z,20.21
2022-10-17T11:17:00.564Z,20.53
2022-10-17T11:21:48.123Z,20.91
2022-10-17T11:26:31.725Z,20.65
2022-10-17T11:31:15.602Z,20.50
2022-10-17T11:36:01.179Z,20.43
2022-10-17T11:40:46.887Z,20.49
2022-10-17T11:45:30.551Z,20.25
2022-10-17T11:55:25.786Z,19.96
2022-10-17T12:00:32.661Z,20.11
2022-10-17T12:05:23.842Z,20.14
2022-10-17T12:10:17.757Z,20.21
2022-10-17T12:15:29.837Z,20.34
2022-10-17T12:20:28.419Z,20.63
2022-10-17T12:25:20.349Z,20.79
2022-10-17T12:30:01.958Z,20.76
2022-10-17T12:34:53.165Z,20.94
2022-10-17T12:39:51.778Z,20.95
2022-10-17T12:44:39.207Z,20.83
2022-10-17T12:49:54.449Z,20.57
2022-10-17T12:54:53.570Z,20.48
2022-10-17T12:59:44.550Z,20.33
2022-10-17T13:04:25.866Z,20.32
2022-10-17T13:09:17.154Z,20.22
2022-10-17T13:14:00.272Z,20.19
2022-10-17T13:18:40.959Z,20.17
2022-10-17T13:23:24.025Z,20.17
2022-10-17T13:28:13.112Z,20.19
2022-10-17T13:32:53.229Z,20.26
2022-10-17T13:37:33.375Z,20.44
2022-10-17T13:42:22.693Z,20.43
2022-10-17T13:47:04.422Z,20.36
2022-10-17T13:51:46.648Z,20.38
2022-10-17T13:56:30.507Z,20.32
2022-10-17T14:01:16.573Z,20.28
2022-10-17T14:06:13.467Z,20.40
2022-10-17T14:10:53.812Z,20.46
2022-10-17T14:15:36.799Z,20.46
2022-10-17T14:25:32.475Z,20.15
2022-10-17T14:35:42.083Z,19.98
2022-10-17T14:40:25.276Z,20.01
2022-10-17T14:45:10.034Z,19.99
2022-10-17T14:49:51.841Z,19.88
2022-10-17T14:54:36.228Z,19.49
2022-10-17T14:59:30.094Z,19.11
2022-10-17T15:04:19.869Z,18.81
2022-10-17T15:09:00.239Z,18.58
2022-10-17T15:13:45.438Z,18.55
2022-10-17T15:18:25.945Z,18.45
2022-10-17T15:23:07.635Z,18.41
2022-10-17T15:27:47.847Z,18.39
2022-10-17T15:32:28.466Z,18.37
2022-10-17T15:37:17.603Z,18.24
2022-10-17T15:41:59.182Z,18.17
2022-10-17T15:46:42.183Z,18.13
2022-10-17T15:51:23.575Z,18.05
2022-10-17T15:56:06.076Z,17.96
2022-10-17T16:00:48.982Z,17.84
2022-10-17T16:05:29.338Z,17.76
2022-10-17T16:10:10.964Z,17.69
2022-10-17T16:14:50.987Z,17.55
2022-10-17T16:19:32.404Z,17.49
2022-10-17T16:24:13.816Z,17.41
2022-10-17T16:28:55.027Z,17.38
2022-10-17T16:33:35.680Z,17.28
2022-10-17T16:38:17.314Z,17.25
2022-10-17T16:42:57.276Z,17.26
2022-10-17T16:47:37.237Z,17.20
2022-10-17T16:52:17.681Z,17.10
2022-10-17T16:56:59.068Z,17.00
2022-10-17T17:01:39.613Z,16.98
2022-10-17T17:06:22.594Z,16.89
2022-10-17T17:11:03.107Z,16.82
2022-10-17T17:20:25.707Z,16.70
2022-10-17T17:25:07.229Z,16.64
2022-10-17T17:29:48.094Z,16.60
2022-10-17T17:34:29.869Z,16.57
2022-10-17T17:39:13.857Z,16.46
2022-10-17T17:43:54.855Z,16.47
2022-10-17T17:48:37.618Z,16.38
2022-10-17T17:53:19.514Z,16.37
2022-10-17T17:58:00.173Z,16.38
2022-10-17T18:02:42.273Z,16.36
2022-10-17T18:07:25.135Z,16.34
2022-10-17T18:12:07.145Z,16.29
2022-10-17T18:16:47.465Z,16.28
2022-10-17T18:21:28.201Z,16.26
2022-10-17T18:26:08.615Z,16.25
2022-10-17T18:30:50.715Z,16.24
2022-10-17T18:35:31.135Z,16.24
2022-10-17T18:40:12.261Z,16.19
2022-10-17T18:44:52.955Z,16.30
2022-10-17T18:49:35.728Z,16.32
2022-10-17T18:54:20.615Z,16.25
2022-10-17T18:59:00.610Z,16.23
2022-10-17T19:03:40.750Z,16.18
2022-10-17T19:08:22.371Z,16.08
2022-10-17T19:13:02.549Z,16.00
2022-10-17T19:17:43.386Z,15.95
2022-10-17T19:22:23.786Z,15.89
2022-10-17T19:27:06.953Z,15.75
2022-10-17T19:31:48.550Z,15.67
2022-10-17T19:36:33.654Z,15.69
2022-10-17T19:41:16.062Z,15.64
2022-10-17T19:45:58.903Z,15.61
2022-10-17T19:50:41.345Z,15.54
2022-10-17T19:55:21.694Z,15.52
2022-10-17T20:00:01.644Z,15.50
2022-10-17T20:04:54.345Z,15.47
2022-10-17T20:09:43.593Z,15.43
2022-10-17T20:14:23.905Z,15.37
2022-10-17T20:19:06.428Z,15.34
2022-10-17T20:23:48.554Z,15.32
2022-10-17T20:28:29.737Z,15.31
2022-10-17T20:33:09.860Z,15.30
2022-10-17T20:37:50.637Z,15.29
2022-10-17T20:42:32.518Z,15.27
2022-10-17T20:47:26.487Z,15.18
2022-10-17T20:52:13.611Z,15.22
2022-10-17T20:56:55.388Z,15.13
2022-10-17T21:01:36.141Z,15.02
2022-10-17T21:06:18.070Z,15.13
2022-10-17T21:11:08.240Z,15.12
2022-10-17T21:15:48.187Z,15.09
2022-10-17T21:20:29.595Z,15.11
2022-10-17T21:25:10.451Z,15.09
2022-10-17T21:29:50.575Z,15.08
2022-10-17T21:34:31.551Z,15.11
2022-10-17T21:39:14.384Z,15.11
2022-10-17T21:43:55.726Z,15.10
2022-10-17T21:48:36.363Z,15.11
2022-10-17T21:53:16.791Z,15.13
2022-10-17T21:57:58.271Z,15.16
2022-10-17T22:02:38.620Z,15.17
2022-10-17T22:07:18.963Z,15.15
2022-10-17T22:11:59.268Z,15.15
2022-10-17T22:16:41.195Z,15.13
2022-10-17T22:21:23.319Z,15.16
2022-10-17T22:26:03.946Z,15.17
2022-10-17T22:30:44.422Z,15.21
2022-10-17T22:35:26.096Z,15.24
2022-10-17T22:40:07.239Z,15.28
2022-10-17T22:44:47.878Z,15.22
2022-10-17T22:49:28.014Z,15.24
2022-10-17T22:54:09.477Z,15.18
2022-10-17T22:58:50.301Z,15.12
2022-10-17T23:03:31.876Z,15.05
2022-10-17T23:08:13.089Z,15.01
2022-10-17T23:12:54.499Z,14.99
2022-10-17T23:17:34.983Z,14.96
2022-10-17T23:22:15.214Z,14.89
2022-10-17T23:26:55.414Z,14.95
2022-10-17T23:31:37.446Z,14.99
2022-10-17T23:36:19.599Z,14.98
2022-10-17T23:41:00.153Z,14.97
2022-10-17T23:50:27.231Z,15.08
2022-10-17T23:55:08.858Z,15.10
2022-10-17T23:59:48.938Z,15.10
